Terminal Aerodrome Forecast
Issued by NWS

Home | Current Version | Previous Version | Graphics & Text | Print | Product List | Glossary On
Versions: 1 2 3 4 5 6 7 8 9 10 11 12 13 14 15 16 17 18 19 20 21 22 23 24 25 26
000
FTUS43 KBIS 240212 AAA
TAFMOT
TAF AMD
KMOT 240212Z 2402/2424 09010KT 3SM -SHRA BR OVC002
     FM240700 10010KT 2SM -SHRA BR VCTS OVC003CB
     FM241000 09007KT 1/2SM FG OVC003
     FM241400 11008KT 1SM BR BKN003
     FM241600 12012KT P6SM BKN015
     FM242200 15012KT P6SM BKN035=

USA.gov is the U.S. government's official web portal to all federal, state and local government web resources and services.